createdAt,value
2023-02-15T00:01:17.041Z,1037.58
2023-02-15T00:03:45.237Z,1037.46
2023-02-15T00:06:12.134Z,1037.63
2023-02-15T00:08:38.869Z,1037.56
2023-02-15T00:11:07.072Z,1037.52
2023-02-15T00:13:33.809Z,1037.45
2023-02-15T00:16:05.120Z,1037.50
2023-02-15T00:18:31.941Z,1037.46
2023-02-15T00:21:05.243Z,1037.36
2023-02-15T00:23:32.028Z,1037.40
2023-02-15T00:26:06.824Z,1037.38
2023-02-15T00:28:33.977Z,1037.32
2023-02-15T00:31:05.532Z,1037.34
2023-02-15T00:33:32.329Z,1037.38
2023-02-15T00:36:01.368Z,1037.44
2023-02-15T00:38:29.083Z,1037.41
2023-02-15T00:40:56.669Z,1037.48
2023-02-15T00:43:23.597Z,1037.56
2023-02-15T00:45:50.492Z,1037.55
2023-02-15T00:48:17.815Z,1037.56
2023-02-15T00:50:46.414Z,1037.58
2023-02-15T00:53:14.515Z,1037.50
2023-02-15T00:55:41.350Z,1037.41
2023-02-15T00:58:08.309Z,1037.35
2023-02-15T01:00:35.117Z,1037.27
2023-02-15T01:03:01.897Z,1037.25
2023-02-15T01:05:29.055Z,1037.17
2023-02-15T01:07:55.864Z,1037.20
2023-02-15T01:10:24.274Z,1037.27
2023-02-15T01:12:51.336Z,1037.25
2023-02-15T01:15:18.444Z,1037.19
2023-02-15T01:17:45.530Z,1037.22
2023-02-15T01:20:12.924Z,1037.20
2023-02-15T01:22:39.633Z,1037.11
2023-02-15T01:25:06.953Z,1037.09
2023-02-15T01:27:35.071Z,1037.08
2023-02-15T01:30:02.085Z,1036.97
2023-02-15T01:32:28.903Z,1037.04
2023-02-15T01:34:55.616Z,1036.98
2023-02-15T01:37:22.324Z,1037.01
2023-02-15T01:39:49.039Z,1037.12
2023-02-15T01:42:22.183Z,1037.09
2023-02-15T01:44:53.103Z,1037.09
2023-02-15T01:50:02.027Z,1037.06
2023-02-15T01:52:29.222Z,1036.96
2023-02-15T01:54:56.530Z,1036.84
2023-02-15T01:57:27.505Z,1036.85
2023-02-15T02:00:00.545Z,1036.82
2023-02-15T02:02:28.698Z,1036.82
2023-02-15T02:04:58.900Z,1036.81
2023-02-15T02:07:28.902Z,1036.69
2023-02-15T02:09:55.698Z,1036.62
2023-02-15T02:12:24.174Z,1036.63
2023-02-15T02:14:52.629Z,1036.66
2023-02-15T02:17:28.456Z,1036.72
2023-02-15T02:20:26.188Z,1036.74
2023-02-15T02:23:13.494Z,1036.67
2023-02-15T02:26:22.506Z,1036.66
2023-02-15T02:29:34.428Z,1036.59
2023-02-15T02:32:29.823Z,1036.57
2023-02-15T02:35:05.343Z,1036.63
2023-02-15T02:37:44.234Z,1036.58
2023-02-15T02:40:17.880Z,1036.59
2023-02-15T02:42:48.663Z,1036.57
2023-02-15T02:45:21.925Z,1036.60
2023-02-15T02:47:53.804Z,1036.59
2023-02-15T02:50:26.225Z,1036.57
2023-02-15T02:52:54.712Z,1036.48
2023-02-15T02:55:26.583Z,1036.63
2023-02-15T02:57:56.548Z,1036.68
2023-02-15T03:00:26.023Z,1036.68
2023-02-15T03:02:59.696Z,1036.54
2023-02-15T03:05:30.287Z,1036.43
2023-02-15T03:07:57.461Z,1036.41
2023-02-15T03:10:25.378Z,1036.45
2023-02-15T03:12:53.697Z,1036.43
2023-02-15T03:15:22.943Z,1036.44
2023-02-15T03:17:56.093Z,1036.49
2023-02-15T03:20:26.549Z,1036.49
2023-02-15T03:22:59.659Z,1036.61
2023-02-15T03:25:32.155Z,1036.48
2023-02-15T03:28:04.281Z,1036.45
2023-02-15T03:30:33.343Z,1036.47
2023-02-15T03:33:01.829Z,1036.36
2023-02-15T03:35:37.420Z,1036.41
2023-02-15T03:38:08.584Z,1036.40
2023-02-15T03:40:38.964Z,1036.43
2023-02-15T03:43:13.841Z,1036.25
2023-02-15T03:45:44.020Z,1036.27
2023-02-15T03:48:10.813Z,1036.38
2023-02-15T03:50:40.174Z,1036.26
2023-02-15T03:53:12.706Z,1036.20
2023-02-15T03:55:39.647Z,1036.20
2023-02-15T03:58:06.489Z,1036.19
2023-02-15T04:00:36.607Z,1036.32
2023-02-15T04:03:13.653Z,1036.30
2023-02-15T04:05:40.498Z,1036.30
2023-02-15T04:08:08.947Z,1036.30
2023-02-15T04:10:35.812Z,1036.31
2023-02-15T04:13:02.660Z,1036.39
2023-02-15T04:15:29.367Z,1036.49
2023-02-15T04:17:56.166Z,1036.48
2023-02-15T04:20:23.012Z,1036.53
2023-02-15T04:22:49.745Z,1036.48
2023-02-15T04:25:17.924Z,1036.40
2023-02-15T04:27:46.521Z,1036.34
2023-02-15T04:30:14.972Z,1036.37
2023-02-15T04:32:42.295Z,1036.38
2023-02-15T04:35:09.826Z,1036.34
2023-02-15T04:37:36.772Z,1036.42
2023-02-15T04:40:04.287Z,1036.33
2023-02-15T04:42:32.762Z,1036.29
2023-02-15T04:44:59.583Z,1036.32
2023-02-15T04:47:26.472Z,1036.24
2023-02-15T04:49:53.361Z,1036.26
2023-02-15T04:52:20.269Z,1036.22
2023-02-15T04:54:47.207Z,1036.20
2023-02-15T04:57:14.345Z,1036.24
2023-02-15T04:59:42.451Z,1036.49
2023-02-15T05:02:09.176Z,1036.44
2023-02-15T05:04:36.049Z,1036.34
2023-02-15T05:07:02.984Z,1036.35
2023-02-15T05:09:29.693Z,1036.47
2023-02-15T05:11:56.550Z,1036.40
2023-02-15T05:14:23.347Z,1036.37
2023-02-15T05:16:51.503Z,1036.31
2023-02-15T05:19:18.267Z,1036.34
2023-02-15T05:21:45.142Z,1036.34
2023-02-15T05:24:12.815Z,1036.33
2023-02-15T05:26:39.600Z,1036.33
2023-02-15T05:29:06.486Z,1036.40
2023-02-15T05:31:34.447Z,1036.36
2023-02-15T05:34:03.168Z,1036.30
2023-02-15T05:36:30.205Z,1036.26
2023-02-15T05:38:57.063Z,1036.32
2023-02-15T05:41:23.800Z,1036.36
2023-02-15T05:43:50.576Z,1036.34
2023-02-15T05:46:17.348Z,1036.47
2023-02-15T05:48:44.148Z,1036.46
2023-02-15T05:51:13.876Z,1036.51
2023-02-15T05:53:41.577Z,1036.46
2023-02-15T05:56:10.478Z,1036.44
2023-02-15T05:58:39.854Z,1036.43
2023-02-15T06:01:10.102Z,1036.46
2023-02-15T06:03:36.957Z,1036.59
2023-02-15T06:06:04.254Z,1036.69
2023-02-15T06:08:33.248Z,1036.73
2023-02-15T06:11:00.429Z,1036.75
2023-02-15T06:13:27.300Z,1036.84
2023-02-15T06:15:54.313Z,1036.88
2023-02-15T06:18:21.403Z,1036.84
2023-02-15T06:20:48.848Z,1036.78
2023-02-15T06:23:16.180Z,1036.70
2023-02-15T06:25:45.948Z,1036.69
2023-02-15T06:28:12.957Z,1036.76
2023-02-15T06:30:40.104Z,1036.76
2023-02-15T06:33:07.045Z,1036.64
2023-02-15T06:35:34.397Z,1036.62
2023-02-15T06:38:01.179Z,1036.58
2023-02-15T06:40:28.370Z,1036.63
2023-02-15T06:42:56.993Z,1036.75
2023-02-15T06:45:23.928Z,1036.77
2023-02-15T06:47:50.869Z,1036.78
2023-02-15T06:50:17.820Z,1036.75
2023-02-15T06:52:44.640Z,1036.80
2023-02-15T06:55:11.465Z,1036.76
2023-02-15T06:57:38.379Z,1036.70
2023-02-15T07:00:07.836Z,1036.68
2023-02-15T07:02:34.605Z,1036.68
2023-02-15T07:05:01.609Z,1036.76
2023-02-15T07:07:28.356Z,1036.75
2023-02-15T07:09:55.157Z,1036.94
2023-02-15T07:12:21.940Z,1036.92
2023-02-15T07:14:48.939Z,1036.95
2023-02-15T07:17:35.101Z,1036.84
2023-02-15T07:20:03.027Z,1036.82
2023-02-15T07:22:29.775Z,1036.75
2023-02-15T07:24:56.599Z,1036.69
2023-02-15T07:27:23.573Z,1036.71
2023-02-15T07:29:50.421Z,1036.61
2023-02-15T07:32:18.655Z,1036.61
2023-02-15T07:34:45.492Z,1036.54
2023-02-15T07:37:12.341Z,1036.45
2023-02-15T07:39:39.222Z,1036.30
2023-02-15T07:42:06.073Z,1036.24
2023-02-15T07:44:32.905Z,1036.09
2023-02-15T07:46:59.705Z,1035.96
2023-02-15T07:49:27.930Z,1035.92
2023-02-15T07:51:54.733Z,1035.72
2023-02-15T07:54:21.524Z,1035.45
2023-02-15T07:56:48.316Z,1035.39
2023-02-15T07:59:15.232Z,1035.27
2023-02-15T08:01:42.005Z,1035.04
2023-02-15T08:04:09.491Z,1034.87
2023-02-15T08:06:38.646Z,1034.80
2023-02-15T08:09:06.927Z,1034.67
2023-02-15T08:11:35.406Z,1034.66
2023-02-15T08:14:04.826Z,1034.57
2023-02-15T08:16:34.002Z,1034.42
2023-02-15T08:19:04.662Z,1034.31
2023-02-15T08:21:33.310Z,1034.19
2023-02-15T08:24:02.382Z,1033.99
2023-02-15T08:26:30.271Z,1034.00
2023-02-15T08:28:57.832Z,1033.89
2023-02-15T08:31:24.830Z,1033.80
2023-02-15T08:33:53.951Z,1033.83
2023-02-15T08:36:22.665Z,1033.71
2023-02-15T08:38:49.941Z,1033.61
2023-02-15T08:41:20.504Z,1033.50
2023-02-15T08:43:48.553Z,1033.41
2023-02-15T08:46:16.538Z,1033.29
2023-02-15T08:48:44.173Z,1033.17
2023-02-15T08:51:13.477Z,1033.17
2023-02-15T08:53:41.957Z,1033.11
2023-02-15T08:56:09.412Z,1032.93
2023-02-15T08:58:38.458Z,1032.82
2023-02-15T09:01:15.843Z,1032.71
2023-02-15T09:03:42.600Z,1032.72
2023-02-15T09:06:09.457Z,1032.77
2023-02-15T09:08:36.477Z,1032.70
2023-02-15T09:11:08.057Z,1032.59
2023-02-15T09:13:35.561Z,1032.57
2023-02-15T09:16:06.170Z,1032.53
2023-02-15T09:18:34.974Z,1032.50
2023-02-15T09:21:05.949Z,1032.46
2023-02-15T09:23:32.759Z,1032.43
2023-02-15T09:26:03.485Z,1032.36
2023-02-15T09:28:30.284Z,1032.40
2023-02-15T09:30:57.115Z,1032.24
2023-02-15T09:33:25.371Z,1032.17
2023-02-15T09:35:52.096Z,1032.12
2023-02-15T09:38:18.856Z,1032.01
2023-02-15T09:40:58.452Z,1032.06
2023-02-15T09:43:39.942Z,1031.97
2023-02-15T09:46:22.567Z,1031.96
2023-02-15T09:48:56.996Z,1031.91
2023-02-15T09:51:51.433Z,1031.87
2023-02-15T09:54:33.823Z,1031.82
2023-02-15T09:57:09.440Z,1031.65
2023-02-15T09:59:46.040Z,1031.63
2023-02-15T10:02:28.478Z,1031.54
2023-02-15T10:05:09.437Z,1031.48
2023-02-15T10:07:54.785Z,1031.45
2023-02-15T10:10:29.552Z,1031.38
2023-02-15T10:13:12.420Z,1031.37
2023-02-15T10:15:54.036Z,1031.33
2023-02-15T10:18:39.687Z,1031.21
2023-02-15T10:21:17.852Z,1031.24
2023-02-15T10:24:05.921Z,1031.13
2023-02-15T10:26:38.955Z,1031.18
2023-02-15T10:29:13.893Z,1031.17
2023-02-15T10:31:49.962Z,1030.99
2023-02-15T10:34:18.497Z,1031.04
2023-02-15T10:37:04.263Z,1030.93
2023-02-15T10:39:39.974Z,1030.91
2023-02-15T10:42:17.261Z,1030.88
2023-02-15T10:44:59.082Z,1030.77
2023-02-15T10:47:45.325Z,1030.77
2023-02-15T10:50:24.846Z,1030.67
2023-02-15T10:53:08.274Z,1030.63
2023-02-15T10:55:48.027Z,1030.56
2023-02-15T10:58:25.809Z,1030.50
2023-02-15T11:01:00.914Z,1030.40
2023-02-15T11:03:44.753Z,1030.21
2023-02-15T11:06:15.432Z,1030.23
2023-02-15T11:08:47.423Z,1030.08
2023-02-15T11:11:22.461Z,1030.04
2023-02-15T11:13:54.050Z,1030.05
2023-02-15T11:16:25.345Z,1029.95
2023-02-15T11:18:55.804Z,1029.88
2023-02-15T11:21:27.501Z,1029.80
2023-02-15T11:23:56.214Z,1029.85
2023-02-15T11:26:29.630Z,1029.79
2023-02-15T11:29:00.443Z,1029.73
2023-02-15T11:31:36.019Z,1029.71
2023-02-15T11:34:07.217Z,1029.66
2023-02-15T11:36:38.545Z,1029.61
2023-02-15T11:39:13.077Z,1029.52
2023-02-15T11:41:42.817Z,1029.51
2023-02-15T11:44:16.260Z,1029.53
2023-02-15T11:46:43.332Z,1029.39
2023-02-15T11:49:22.140Z,1029.38
2023-02-15T11:51:49.160Z,1029.24
2023-02-15T11:54:18.826Z,1029.28
2023-02-15T11:56:45.625Z,1029.15
2023-02-15T11:59:18.191Z,1029.16
2023-02-15T12:01:46.837Z,1029.21
2023-02-15T12:04:21.571Z,1029.14
2023-02-15T12:06:54.234Z,1029.12
2023-02-15T12:09:35.463Z,1029.16
2023-02-15T12:12:22.337Z,1029.22
2023-02-15T12:14:50.499Z,1029.08
2023-02-15T12:17:18.239Z,1029.00
2023-02-15T12:19:45.849Z,1028.97
2023-02-15T12:22:22.715Z,1028.99
2023-02-15T12:24:53.602Z,1029.03
2023-02-15T12:27:22.483Z,1028.96
2023-02-15T12:29:52.310Z,1028.90
2023-02-15T12:32:23.262Z,1028.82
2023-02-15T12:34:52.283Z,1028.84
2023-02-15T12:37:23.920Z,1028.79
2023-02-15T12:39:57.303Z,1028.83
2023-02-15T12:42:25.456Z,1028.81
2023-02-15T12:45:00.963Z,1028.71
2023-02-15T12:47:29.559Z,1028.74
2023-02-15T12:50:13.040Z,1028.72
2023-02-15T12:52:40.246Z,1028.62
2023-02-15T12:55:20.195Z,1028.61
2023-02-15T12:57:47.161Z,1028.55
2023-02-15T13:00:28.683Z,1028.58
2023-02-15T13:02:58.265Z,1028.47
2023-02-15T13:05:31.821Z,1028.49
2023-02-15T13:08:00.996Z,1028.50
2023-02-15T13:10:32.212Z,1028.45
2023-02-15T13:12:59.690Z,1028.44
2023-02-15T13:15:31.611Z,1028.45
2023-02-15T13:18:00.389Z,1028.52
2023-02-15T13:20:28.670Z,1028.43
2023-02-15T13:22:59.968Z,1028.37
2023-02-15T13:25:32.099Z,1028.37
2023-02-15T13:28:04.072Z,1028.37
2023-02-15T13:30:34.765Z,1028.32
2023-02-15T13:33:05.661Z,1028.35
2023-02-15T13:35:40.713Z,1028.22
2023-02-15T13:38:28.083Z,1028.29
2023-02-15T13:41:00.415Z,1028.29
2023-02-15T13:43:39.843Z,1028.27
2023-02-15T13:46:19.998Z,1028.29
2023-02-15T13:48:56.845Z,1028.36
2023-02-15T13:51:33.965Z,1028.38
2023-02-15T13:54:16.680Z,1028.41
2023-02-15T13:56:59.501Z,1028.41
2023-02-15T13:59:44.587Z,1028.36
2023-02-15T14:02:38.457Z,1028.32
2023-02-15T14:05:25.318Z,1028.25
2023-02-15T14:08:02.186Z,1028.40
2023-02-15T14:10:40.259Z,1028.32
2023-02-15T14:13:32.153Z,1028.38
2023-02-15T14:16:04.124Z,1028.44
2023-02-15T14:18:36.862Z,1028.42
2023-02-15T14:21:11.416Z,1028.42
2023-02-15T14:23:49.448Z,1028.48
2023-02-15T14:26:25.717Z,1028.52
2023-02-15T14:29:04.390Z,1028.35
2023-02-15T14:31:35.871Z,1028.47
2023-02-15T14:34:02.731Z,1028.45
2023-02-15T14:36:31.381Z,1028.49
2023-02-15T14:39:07.273Z,1028.45
2023-02-15T14:41:40.894Z,1028.44
2023-02-15T14:44:16.809Z,1028.45
2023-02-15T14:46:50.797Z,1028.41
2023-02-15T14:49:20.803Z,1028.54
2023-02-15T14:52:03.320Z,1028.58
2023-02-15T14:54:56.599Z,1028.54
2023-02-15T14:57:35.949Z,1028.60
2023-02-15T15:00:32.319Z,1028.72
2023-02-15T15:02:59.200Z,1028.62
2023-02-15T15:05:34.023Z,1028.61
2023-02-15T15:08:03.959Z,1028.73
2023-02-15T15:10:38.767Z,1028.74
2023-02-15T15:13:45.685Z,1028.81
2023-02-15T15:16:31.057Z,1028.84
2023-02-15T15:18:58.435Z,1028.89
2023-02-15T15:21:53.999Z,1028.92
2023-02-15T15:24:50.921Z,1029.04
2023-02-15T15:27:46.768Z,1029.01
2023-02-15T15:31:01.181Z,1029.01
2023-02-15T15:34:17.572Z,1029.10
2023-02-15T15:37:26.248Z,1029.21
2023-02-15T15:40:25.876Z,1029.31
2023-02-15T15:43:31.724Z,1029.42
2023-02-15T15:46:24.067Z,1029.49
2023-02-15T15:48:53.329Z,1029.50
2023-02-15T15:51:25.746Z,1029.56
2023-02-15T15:53:53.996Z,1029.61
2023-02-15T15:56:25.104Z,1029.70
2023-02-15T15:58:55.357Z,1029.76
2023-02-15T16:01:27.412Z,1029.83
2023-02-15T16:03:56.644Z,1029.80
2023-02-15T16:06:34.398Z,1029.86
2023-02-15T16:09:17.043Z,1029.90
2023-02-15T16:11:44.244Z,1030.08
2023-02-15T16:14:14.591Z,1030.16
2023-02-15T16:16:41.967Z,1030.41
2023-02-15T16:19:20.587Z,1030.56
2023-02-15T16:21:49.775Z,1030.63
2023-02-15T16:24:29.454Z,1030.79
2023-02-15T16:27:12.220Z,1030.89
2023-02-15T16:29:39.098Z,1031.01
2023-02-15T16:32:16.471Z,1031.11
2023-02-15T16:34:52.092Z,1031.24
2023-02-15T16:37:22.114Z,1031.25
2023-02-15T16:39:48.904Z,1031.32
2023-02-15T16:42:17.021Z,1031.42
2023-02-15T16:44:44.627Z,1031.55
2023-02-15T16:47:17.560Z,1031.64
2023-02-15T16:49:47.882Z,1031.70
2023-02-15T16:52:20.084Z,1031.73
2023-02-15T16:54:53.598Z,1031.83
2023-02-15T16:57:24.489Z,1031.84
2023-02-15T16:59:54.377Z,1031.91
2023-02-15T17:02:49.381Z,1032.03
2023-02-15T17:05:17.348Z,1031.97
2023-02-15T17:07:51.288Z,1032.08
2023-02-15T17:10:31.632Z,1032.11
2023-02-15T17:13:02.889Z,1032.05
2023-02-15T17:15:32.776Z,1032.00
2023-02-15T17:18:03.971Z,1031.94
2023-02-15T17:20:33.948Z,1031.97
2023-02-15T17:23:02.690Z,1032.03
2023-02-15T17:25:37.614Z,1032.04
2023-02-15T17:28:05.738Z,1032.13
2023-02-15T17:30:35.122Z,1032.20
2023-02-15T17:33:04.196Z,1032.15
2023-02-15T17:35:32.976Z,1032.30
2023-02-15T17:38:16.234Z,1032.36
2023-02-15T17:40:44.369Z,1032.39
2023-02-15T17:43:11.290Z,1032.42
2023-02-15T17:45:44.796Z,1032.50
2023-02-15T17:48:26.883Z,1032.59
2023-02-15T17:50:53.665Z,1032.65
2023-02-15T17:53:20.380Z,1032.65
2023-02-15T17:55:48.528Z,1032.67
2023-02-15T17:58:17.262Z,1032.70
2023-02-15T18:00:45.940Z,1032.81
2023-02-15T18:03:13.220Z,1032.75
2023-02-15T18:05:40.059Z,1032.70
2023-02-15T18:08:11.410Z,1032.75
2023-02-15T18:10:38.261Z,1032.77
2023-02-15T18:13:06.451Z,1032.89
2023-02-15T18:15:33.297Z,1032.90
2023-02-15T18:18:00.130Z,1033.08
2023-02-15T18:20:32.840Z,1033.03
2023-02-15T18:22:59.636Z,1033.04
2023-02-15T18:25:26.519Z,1032.88
2023-02-15T18:27:55.124Z,1032.91
2023-02-15T18:30:27.377Z,1032.85
2023-02-15T18:32:56.214Z,1032.89
2023-02-15T18:35:28.595Z,1032.88
2023-02-15T18:37:56.184Z,1033.01
2023-02-15T18:40:26.797Z,1032.97
2023-02-15T18:42:54.244Z,1032.75
2023-02-15T18:45:24.428Z,1032.77
2023-02-15T18:47:51.906Z,1032.72
2023-02-15T18:50:20.212Z,1032.67
2023-02-15T18:52:48.936Z,1032.78
2023-02-15T18:55:18.862Z,1032.93
2023-02-15T18:57:46.388Z,1032.92
2023-02-15T19:00:17.957Z,1032.98
2023-02-15T19:02:46.526Z,1033.01
2023-02-15T19:05:14.060Z,1033.09
2023-02-15T19:07:41.846Z,1033.09
2023-02-15T19:10:13.460Z,1033.14
2023-02-15T19:12:40.361Z,1033.17
2023-02-15T19:15:11.054Z,1033.12
2023-02-15T19:17:37.764Z,1033.17
2023-02-15T19:20:07.639Z,1033.10
2023-02-15T19:22:36.466Z,1033.14
2023-02-15T19:25:05.345Z,1033.14
2023-02-15T19:27:35.086Z,1033.16
2023-02-15T19:30:11.031Z,1033.13
2023-02-15T19:32:37.912Z,1033.10
2023-02-15T19:35:06.904Z,1033.12
2023-02-15T19:37:37.182Z,1033.10
2023-02-15T19:40:04.580Z,1033.15
2023-02-15T19:42:31.432Z,1033.19
2023-02-15T19:44:58.295Z,1033.20
2023-02-15T19:47:27.151Z,1033.23
2023-02-15T19:49:53.966Z,1033.31
2023-02-15T19:52:22.704Z,1033.25
2023-02-15T19:54:49.927Z,1033.31
2023-02-15T19:57:16.743Z,1033.34
2023-02-15T19:59:43.478Z,1033.35
2023-02-15T20:02:13.402Z,1033.36
2023-02-15T20:04:43.088Z,1033.38
2023-02-15T20:07:25.963Z,1033.40
2023-02-15T20:09:54.276Z,1033.41
2023-02-15T20:12:23.196Z,1033.35
2023-02-15T20:14:50.600Z,1033.34
2023-02-15T20:17:19.472Z,1033.32
2023-02-15T20:19:46.306Z,1033.30
2023-02-15T20:22:20.615Z,1033.30
2023-02-15T20:24:47.426Z,1033.30
2023-02-15T20:27:17.463Z,1033.20
2023-02-15T20:29:44.280Z,1033.23
2023-02-15T20:32:11.913Z,1033.28
2023-02-15T20:34:39.204Z,1033.29
2023-02-15T20:37:06.130Z,1033.32
2023-02-15T20:39:33.976Z,1033.28
2023-02-15T20:42:01.374Z,1033.36
2023-02-15T20:44:31.995Z,1033.31
2023-02-15T20:46:59.335Z,1033.33
2023-02-15T20:49:27.592Z,1033.36
2023-02-15T20:51:56.338Z,1033.31
2023-02-15T20:54:27.144Z,1033.26
2023-02-15T20:56:55.858Z,1033.29
2023-02-15T20:59:25.908Z,1033.25
2023-02-15T21:01:59.927Z,1033.20
2023-02-15T21:04:31.388Z,1033.23
2023-02-15T21:06:59.365Z,1033.22
2023-02-15T21:09:26.199Z,1033.20
2023-02-15T21:11:55.513Z,1033.24
2023-02-15T21:14:25.850Z,1033.23
2023-02-15T21:16:53.215Z,1033.28
2023-02-15T21:19:25.304Z,1033.24
2023-02-15T21:21:53.507Z,1033.26
2023-02-15T21:24:23.438Z,1033.25
2023-02-15T21:26:50.502Z,1033.22
2023-02-15T21:29:19.157Z,1033.24
2023-02-15T21:31:47.006Z,1033.22
2023-02-15T21:34:14.676Z,1033.26
2023-02-15T21:36:43.203Z,1033.25
2023-02-15T21:39:15.430Z,1033.32
2023-02-15T21:41:46.784Z,1033.28
2023-02-15T21:44:18.773Z,1033.28
2023-02-15T21:46:45.610Z,1033.33
2023-02-15T21:49:12.424Z,1033.28
2023-02-15T21:51:39.275Z,1033.35
2023-02-15T21:54:11.397Z,1033.27
2023-02-15T21:56:38.151Z,1033.24
2023-02-15T21:59:10.120Z,1033.24
2023-02-15T22:01:36.890Z,1033.21
2023-02-15T22:04:03.822Z,1033.18
2023-02-15T22:06:30.874Z,1033.23
2023-02-15T22:08:57.684Z,1033.21
2023-02-15T22:11:29.753Z,1033.22
2023-02-15T22:13:56.565Z,1033.22
2023-02-15T22:16:23.426Z,1033.16
2023-02-15T22:18:50.435Z,1033.26
2023-02-15T22:21:17.285Z,1033.28
2023-02-15T22:23:43.995Z,1033.27
2023-02-15T22:26:23.573Z,1033.31
2023-02-15T22:28:51.931Z,1033.23
2023-02-15T22:31:20.979Z,1033.37
2023-02-15T22:33:48.625Z,1033.29
2023-02-15T22:36:23.288Z,1033.26
2023-02-15T22:38:50.114Z,1033.36
2023-02-15T22:41:17.681Z,1033.39
2023-02-15T22:43:46.293Z,1033.36
2023-02-15T22:46:17.422Z,1033.26
2023-02-15T22:48:45.313Z,1033.29
2023-02-15T22:51:13.475Z,1033.29
2023-02-15T22:53:40.282Z,1033.37
2023-02-15T22:56:12.637Z,1033.42
2023-02-15T22:58:39.637Z,1033.38
2023-02-15T23:01:06.518Z,1033.38
2023-02-15T23:03:34.767Z,1033.38
2023-02-15T23:06:01.582Z,1033.27
2023-02-15T23:08:28.298Z,1033.27
2023-02-15T23:10:56.969Z,1033.25
2023-02-15T23:13:26.442Z,1033.26
2023-02-15T23:15:58.870Z,1033.34
2023-02-15T23:18:29.013Z,1033.30
2023-02-15T23:20:59.750Z,1033.39
2023-02-15T23:23:31.296Z,1033.40
2023-02-15T23:25:58.291Z,1033.37
2023-02-15T23:28:27.870Z,1033.31
2023-02-15T23:30:55.445Z,1033.32
2023-02-15T23:33:24.865Z,1033.29
2023-02-15T23:35:51.795Z,1033.33
2023-02-15T23:38:23.195Z,1033.38
2023-02-15T23:40:54.429Z,1033.39
2023-02-15T23:43:22.818Z,1033.28
2023-02-15T23:45:49.714Z,1033.36
2023-02-15T23:48:23.643Z,1033.31
2023-02-15T23:50:50.396Z,1033.37
2023-02-15T23:53:17.221Z,1033.26
2023-02-15T23:55:45.760Z,1033.24
2023-02-15T23:58:17.020Z,1033.23
